Pagrindinis puslapis
METAR-TAF:

METAR-TAF

Oro uostai :

Kasumigaura, Japonija

platuma: 36-02N, ilguma: 140-12E, Aukštis: 26 m

Dabartinis oras

Ataskaita buvo paskelbta 7 valandos ir 8 minutes, ne 07:18 UTC
Vėjas 4 kt iš Šiaurės
Temperatūra 10°C
Drėgmė 66%
Slėgis 1026 hPa
Matomumas 10 km arba daugiau
Mažai debesys ne aukštis 2000 ft
Su prošvaistėmis ne aukštis 3000 ft

METAR: RJAK 090718Z 36004KT 9999 FEW020 BKN030 10/04 Q1026 RMK 2SC020 7SC030 A3031

Laikas: 23:26 (14:26 UTC)


TAF: trūkstamas

Orai ataskaitas ir orų prognozės (METAR, TAF).

turimą stotys yra geltonos ir raudonos taškus žemėlapyje.

Perkelti pele per norėdami pamatyti stoties vardą.

Tada spustelėkite, norėdami matyti oro stebėjimo ir prognozės.

Norėdami pakeisti žemėlapį: spustelėkite ant žalios mygtukų su juodo kryžiaus žemyn,; žalią mygtuką su brūkšneliu, jei norite nutolinti; arba žalių rodyklių gretimoms žemėlapius.


METAR-TAF: